createdAt,value
2023-05-14T00:00:31.788Z,12.19
2023-05-14T00:03:37.582Z,12.16
2023-05-14T00:06:43.020Z,12.14
2023-05-14T00:09:45.729Z,12.09
2023-05-14T00:12:48.493Z,12.04
2023-05-14T00:15:51.188Z,12.02
2023-05-14T00:18:54.044Z,11.98
2023-05-14T00:21:58.056Z,11.97
2023-05-14T00:25:00.898Z,11.91
2023-05-14T00:28:04.254Z,11.83
2023-05-14T00:31:06.929Z,11.84
2023-05-14T00:34:09.632Z,11.78
2023-05-14T00:37:16.716Z,11.64
2023-05-14T00:40:20.905Z,11.61
2023-05-14T00:43:25.116Z,11.57
2023-05-14T00:46:28.494Z,11.57
2023-05-14T00:49:31.275Z,11.54
2023-05-14T00:52:35.390Z,11.52
2023-05-14T00:55:39.330Z,11.49
2023-05-14T00:58:42.065Z,11.43
2023-05-14T01:01:44.966Z,11.42
2023-05-14T01:04:47.739Z,11.38
2023-05-14T01:08:00.931Z,11.33
2023-05-14T01:11:07.864Z,11.28
2023-05-14T01:14:21.504Z,11.24
2023-05-14T01:17:27.836Z,11.22
2023-05-14T01:20:30.601Z,11.18
2023-05-14T01:23:34.644Z,11.10
2023-05-14T01:26:37.743Z,11.09
2023-05-14T01:29:44.809Z,11.05
2023-05-14T01:32:52.973Z,11.03
2023-05-14T01:35:56.251Z,11.04
2023-05-14T01:39:02.086Z,11.03
2023-05-14T01:42:05.653Z,11.04
2023-05-14T01:45:10.531Z,11.07
2023-05-14T01:48:14.000Z,11.13
2023-05-14T01:51:18.911Z,11.18
2023-05-14T01:54:22.940Z,11.25
2023-05-14T01:57:25.650Z,11.34
2023-05-14T02:00:32.056Z,11.38
2023-05-14T02:03:34.875Z,11.48
2023-05-14T02:06:37.624Z,11.49
2023-05-14T02:09:42.039Z,11.49
2023-05-14T02:12:44.783Z,11.49
2023-05-14T02:15:47.533Z,11.52
2023-05-14T02:18:50.298Z,11.62
2023-05-14T02:21:53.025Z,11.66
2023-05-14T02:24:57.077Z,11.69
2023-05-14T02:27:59.775Z,11.73
2023-05-14T02:31:03.198Z,11.77
2023-05-14T02:34:07.525Z,11.82
2023-05-14T02:37:10.947Z,11.82
2023-05-14T02:40:15.211Z,11.87
2023-05-14T02:43:17.905Z,11.88
2023-05-14T02:46:20.843Z,11.92
2023-05-14T02:49:26.628Z,11.93
2023-05-14T02:52:29.385Z,11.93
2023-05-14T02:55:33.428Z,11.95
2023-05-14T02:58:36.128Z,11.97
2023-05-14T03:01:38.828Z,11.96
2023-05-14T03:04:44.008Z,11.99
2023-05-14T03:07:47.020Z,12.03
2023-05-14T03:10:51.065Z,12.06
2023-05-14T03:13:53.783Z,12.08
2023-05-14T03:16:56.526Z,12.09
2023-05-14T03:19:59.210Z,12.06
2023-05-14T03:23:02.285Z,12.06
2023-05-14T03:26:06.749Z,12.09
2023-05-14T03:29:10.748Z,12.06
2023-05-14T03:32:13.523Z,12.06
2023-05-14T03:35:16.272Z,12.05
2023-05-14T03:38:19.017Z,11.99
2023-05-14T03:41:24.141Z,11.94
2023-05-14T03:44:26.860Z,11.89
2023-05-14T03:47:29.568Z,11.90
2023-05-14T03:50:32.597Z,11.93
2023-05-14T03:53:35.299Z,11.92
2023-05-14T03:56:43.306Z,11.90
2023-05-14T03:59:46.009Z,11.89
2023-05-14T04:02:49.109Z,11.91
2023-05-14T04:05:52.161Z,11.90
2023-05-14T04:08:54.845Z,11.91
2023-05-14T04:11:58.916Z,11.92
2023-05-14T04:15:02.996Z,11.90
2023-05-14T04:18:06.080Z,11.81
2023-05-14T04:21:08.851Z,11.90
2023-05-14T04:24:11.568Z,11.91
2023-05-14T04:27:21.560Z,11.88
2023-05-14T04:30:24.458Z,11.93
2023-05-14T04:33:27.352Z,11.88
2023-05-14T04:36:30.065Z,11.87
2023-05-14T04:39:32.787Z,11.87
2023-05-14T04:42:36.807Z,11.90
2023-05-14T04:45:40.960Z,11.90
2023-05-14T04:48:43.705Z,11.91
2023-05-14T04:51:46.400Z,11.91
2023-05-14T04:54:49.121Z,11.92
2023-05-14T04:57:53.369Z,11.97
2023-05-14T05:00:56.581Z,12.02
2023-05-14T05:03:59.343Z,12.05
2023-05-14T05:07:03.047Z,12.07
2023-05-14T05:10:06.514Z,12.12
2023-05-14T05:13:10.595Z,12.15
2023-05-14T05:16:17.091Z,12.18
2023-05-14T05:19:24.387Z,12.25
2023-05-14T05:22:32.489Z,12.30
2023-05-14T05:25:36.037Z,12.34
2023-05-14T05:28:40.103Z,12.33
2023-05-14T05:31:43.176Z,12.36
2023-05-14T05:34:45.859Z,12.42
2023-05-14T05:37:48.633Z,12.50
2023-05-14T05:40:51.332Z,12.47
2023-05-14T05:43:55.352Z,12.49
2023-05-14T05:47:01.143Z,12.55
2023-05-14T05:50:03.902Z,12.54
2023-05-14T05:53:10.040Z,12.68
2023-05-14T05:56:12.789Z,12.92
2023-05-14T05:59:16.844Z,13.11
2023-05-14T06:02:20.323Z,13.26
2023-05-14T06:05:24.113Z,13.36
2023-05-14T06:08:27.101Z,13.50
2023-05-14T06:11:32.854Z,13.62
2023-05-14T06:14:36.841Z,13.77
2023-05-14T06:17:39.812Z,13.86
2023-05-14T06:20:42.521Z,13.88
2023-05-14T06:23:46.106Z,13.93
2023-05-14T06:26:49.429Z,14.03
2023-05-14T06:29:53.571Z,14.21
2023-05-14T06:32:56.487Z,14.35
2023-05-14T06:35:59.526Z,14.42
2023-05-14T06:39:02.275Z,14.44
2023-05-14T06:42:05.366Z,14.61
2023-05-14T06:45:10.309Z,14.62
2023-05-14T06:48:14.163Z,14.63
2023-05-14T06:51:17.099Z,14.76
2023-05-14T06:54:20.568Z,14.84
2023-05-14T06:57:23.497Z,14.94
2023-05-14T07:00:27.932Z,15.10
2023-05-14T07:03:30.775Z,15.24
2023-05-14T07:06:33.584Z,15.41
2023-05-14T07:09:36.316Z,15.65
2023-05-14T07:12:39.082Z,15.93
2023-05-14T07:15:43.259Z,16.25
2023-05-14T07:18:46.151Z,16.79
2023-05-14T07:21:48.869Z,18.22
2023-05-14T07:24:52.042Z,19.55
2023-05-14T07:27:55.150Z,20.19
2023-05-14T07:30:59.403Z,20.92
2023-05-14T07:34:02.077Z,20.78
2023-05-14T07:37:05.139Z,20.17
2023-05-14T07:40:08.924Z,19.31
2023-05-14T07:43:12.081Z,19.39
2023-05-14T07:46:16.582Z,19.24
2023-05-14T07:49:19.319Z,19.12
2023-05-14T07:52:22.050Z,18.88
2023-05-14T07:55:24.830Z,19.35
2023-05-14T07:58:27.873Z,19.23
2023-05-14T08:01:32.379Z,19.01
2023-05-14T08:04:36.143Z,18.32
2023-05-14T08:07:38.993Z,17.77
2023-05-14T08:10:43.241Z,17.57
2023-05-14T08:13:45.991Z,17.37
2023-05-14T08:16:50.121Z,17.25
2023-05-14T08:19:54.350Z,17.06
2023-05-14T08:22:57.381Z,16.97
2023-05-14T08:26:02.261Z,17.01
2023-05-14T08:29:05.132Z,17.01
2023-05-14T08:32:22.119Z,16.94
2023-05-14T08:35:26.552Z,16.98
2023-05-14T08:38:29.213Z,17.13
2023-05-14T08:41:32.900Z,17.27
2023-05-14T08:44:44.825Z,17.43
2023-05-14T08:47:51.491Z,17.39
2023-05-14T08:50:54.367Z,17.45
2023-05-14T08:54:01.562Z,17.37
2023-05-14T08:57:04.734Z,17.17
2023-05-14T09:00:11.754Z,17.14
2023-05-14T09:03:17.287Z,17.01
2023-05-14T09:06:21.492Z,17.03
2023-05-14T09:09:24.806Z,16.97
2023-05-14T09:12:27.498Z,17.05
2023-05-14T09:15:30.562Z,17.13
2023-05-14T09:18:36.943Z,17.34
2023-05-14T09:21:40.238Z,17.50
2023-05-14T09:24:43.464Z,17.78
2023-05-14T09:27:50.279Z,18.10
2023-05-14T09:30:53.152Z,18.34
2023-05-14T09:33:57.276Z,18.83
2023-05-14T09:37:01.751Z,19.35
2023-05-14T09:40:08.949Z,19.57
2023-05-14T09:43:11.773Z,19.57
2023-05-14T09:46:14.593Z,19.44
2023-05-14T09:49:19.211Z,19.41
2023-05-14T09:52:21.937Z,19.45
2023-05-14T09:55:25.271Z,19.54
2023-05-14T09:58:29.039Z,19.64
2023-05-14T10:01:33.027Z,19.54
2023-05-14T10:04:38.614Z,19.36
2023-05-14T10:07:45.778Z,19.47
2023-05-14T10:10:52.209Z,19.26
2023-05-14T10:14:04.191Z,19.26
2023-05-14T10:17:17.994Z,19.31
2023-05-14T10:20:23.937Z,19.15
2023-05-14T10:23:27.294Z,19.27
2023-05-14T10:26:30.298Z,19.24
2023-05-14T10:29:35.384Z,19.29
2023-05-14T10:32:38.840Z,19.44
2023-05-14T10:35:59.362Z,19.48
2023-05-14T10:39:05.136Z,19.51
2023-05-14T10:42:08.380Z,19.53
2023-05-14T10:45:12.686Z,19.46
2023-05-14T10:48:16.199Z,19.45
2023-05-14T10:51:22.968Z,19.54
2023-05-14T10:54:28.572Z,19.67
2023-05-14T10:57:33.021Z,19.64
2023-05-14T11:00:36.947Z,19.76
2023-05-14T11:03:44.847Z,19.87
2023-05-14T11:06:50.111Z,19.93
2023-05-14T11:09:53.325Z,19.98
2023-05-14T11:12:57.505Z,20.06
2023-05-14T11:16:08.713Z,20.09
2023-05-14T11:19:22.989Z,19.95
2023-05-14T11:22:27.558Z,19.65
2023-05-14T11:25:30.619Z,19.61
2023-05-14T11:28:33.315Z,19.67
2023-05-14T11:31:36.897Z,19.62
2023-05-14T11:34:39.681Z,19.58
2023-05-14T11:37:44.326Z,19.73
2023-05-14T11:40:53.406Z,19.82
2023-05-14T11:43:56.288Z,19.89
2023-05-14T11:47:01.831Z,20.00
2023-05-14T11:50:05.952Z,19.99
2023-05-14T11:53:10.866Z,19.86
2023-05-14T11:56:13.581Z,19.88
2023-05-14T11:59:19.008Z,20.01
2023-05-14T12:02:22.925Z,20.11
2023-05-14T12:05:26.314Z,20.22
2023-05-14T12:08:31.543Z,20.40
2023-05-14T12:11:37.127Z,20.51
2023-05-14T12:14:41.811Z,20.55
2023-05-14T12:17:50.317Z,20.80
2023-05-14T12:20:53.128Z,21.16
2023-05-14T12:24:00.964Z,21.16
2023-05-14T12:27:04.438Z,21.16
2023-05-14T12:33:14.562Z,21.17
2023-05-14T12:36:21.836Z,21.01
2023-05-14T12:39:27.413Z,20.94
2023-05-14T12:42:30.129Z,21.15
2023-05-14T12:45:32.892Z,21.26
2023-05-14T12:48:35.934Z,21.00
2023-05-14T12:51:38.795Z,20.87
2023-05-14T12:54:43.511Z,20.94
2023-05-14T12:57:46.343Z,21.26
2023-05-14T13:00:49.087Z,21.67
2023-05-14T13:03:52.160Z,21.78
2023-05-14T13:06:54.925Z,21.91
2023-05-14T13:09:59.119Z,21.63
2023-05-14T13:13:02.485Z,21.64
2023-05-14T13:16:05.713Z,21.72
2023-05-14T13:19:11.147Z,21.89
2023-05-14T13:22:14.411Z,22.08
2023-05-14T13:25:18.706Z,22.09
2023-05-14T13:28:21.421Z,21.99
2023-05-14T13:31:24.174Z,21.77
2023-05-14T13:34:27.021Z,21.69
2023-05-14T13:37:29.783Z,21.56
2023-05-14T13:40:33.930Z,21.55
2023-05-14T13:43:37.005Z,21.39
2023-05-14T13:46:39.799Z,21.00
2023-05-14T13:49:42.533Z,20.70
2023-05-14T13:52:45.233Z,20.45
2023-05-14T13:55:49.844Z,20.34
2023-05-14T13:58:52.884Z,20.54
2023-05-14T14:01:55.747Z,20.73
2023-05-14T14:04:58.558Z,20.93
2023-05-14T14:08:13.149Z,21.29
2023-05-14T14:11:25.911Z,21.49
2023-05-14T14:14:29.036Z,21.67
2023-05-14T14:17:31.854Z,21.74
2023-05-14T14:20:34.645Z,21.87
2023-05-14T14:23:37.484Z,22.07
2023-05-14T14:26:42.045Z,22.23
2023-05-14T14:29:44.752Z,22.09
2023-05-14T14:32:48.519Z,21.84
2023-05-14T14:35:53.520Z,21.77
2023-05-14T14:38:56.292Z,21.51
2023-05-14T14:42:00.357Z,21.36
2023-05-14T14:45:03.301Z,21.14
2023-05-14T14:48:27.513Z,20.97
2023-05-14T14:51:31.343Z,20.88
2023-05-14T14:54:34.144Z,20.80
2023-05-14T14:57:38.221Z,20.85
2023-05-14T15:00:41.523Z,20.91
2023-05-14T15:03:45.627Z,20.86
2023-05-14T15:06:48.540Z,21.07
2023-05-14T15:09:51.208Z,21.17
2023-05-14T15:12:55.616Z,21.33
2023-05-14T15:15:58.311Z,21.50
2023-05-14T15:19:01.039Z,21.54
2023-05-14T15:22:03.960Z,21.52
2023-05-14T15:25:07.108Z,21.54
2023-05-14T15:28:11.440Z,21.53
2023-05-14T15:31:14.359Z,21.53
2023-05-14T15:34:17.097Z,21.56
2023-05-14T15:37:19.820Z,21.57
2023-05-14T15:40:23.158Z,21.39
2023-05-14T15:43:27.411Z,21.33
2023-05-14T15:46:30.384Z,21.31
2023-05-14T15:49:33.091Z,21.40
2023-05-14T15:52:36.304Z,21.42
2023-05-14T15:55:39.176Z,21.34
2023-05-14T15:58:43.253Z,21.06
2023-05-14T16:01:50.597Z,20.95
2023-05-14T16:04:53.392Z,20.89
2023-05-14T16:07:59.638Z,20.82
2023-05-14T16:11:02.465Z,20.73
2023-05-14T16:14:10.578Z,20.63
2023-05-14T16:17:13.403Z,20.45
2023-05-14T16:20:16.691Z,20.33
2023-05-14T16:23:19.659Z,20.20
2023-05-14T16:26:22.407Z,20.09
2023-05-14T16:29:26.570Z,19.99
2023-05-14T16:32:29.281Z,19.94
2023-05-14T16:35:32.177Z,20.01
2023-05-14T16:38:38.518Z,20.09
2023-05-14T16:41:44.112Z,20.08
2023-05-14T16:44:48.253Z,20.15
2023-05-14T16:47:51.190Z,20.20
2023-05-14T16:50:53.934Z,20.27
2023-05-14T16:53:56.699Z,20.27
2023-05-14T16:56:59.357Z,20.17
2023-05-14T17:00:06.174Z,20.17
2023-05-14T17:03:09.013Z,20.03
2023-05-14T17:06:11.809Z,19.95
2023-05-14T17:09:14.505Z,19.82
2023-05-14T17:12:17.230Z,19.70
2023-05-14T17:15:21.483Z,19.58
2023-05-14T17:18:24.314Z,19.40
2023-05-14T17:21:26.988Z,19.24
2023-05-14T17:24:29.765Z,19.03
2023-05-14T17:27:33.345Z,18.90
2023-05-14T17:30:37.545Z,18.82
2023-05-14T17:33:40.279Z,18.88
2023-05-14T17:36:43.001Z,18.89
2023-05-14T17:39:45.669Z,18.77
2023-05-14T17:42:48.350Z,18.71
2023-05-14T17:45:54.374Z,18.54
2023-05-14T17:48:58.221Z,18.41
2023-05-14T17:52:01.006Z,18.33
2023-05-14T17:55:03.873Z,18.28
2023-05-14T17:58:06.762Z,18.18
2023-05-14T18:01:10.908Z,18.24
2023-05-14T18:04:13.909Z,18.12
2023-05-14T18:07:16.689Z,18.22
2023-05-14T18:10:19.461Z,18.22
2023-05-14T18:13:22.199Z,18.02
2023-05-14T18:16:26.454Z,17.62
2023-05-14T18:19:29.668Z,17.77
2023-05-14T18:22:32.313Z,17.67
2023-05-14T18:25:35.497Z,17.50
2023-05-14T18:28:38.571Z,17.31
2023-05-14T18:31:42.572Z,17.23
2023-05-14T18:34:45.698Z,17.26
2023-05-14T18:37:48.383Z,17.24
2023-05-14T18:40:51.704Z,17.27
2023-05-14T18:43:54.478Z,17.34
2023-05-14T18:46:59.437Z,17.40
2023-05-14T18:50:02.763Z,17.46
2023-05-14T18:53:05.438Z,17.45
2023-05-14T18:56:09.574Z,17.51
2023-05-14T18:59:12.371Z,17.46
2023-05-14T19:02:16.621Z,17.46
2023-05-14T19:05:19.840Z,17.44
2023-05-14T19:08:22.722Z,17.40
2023-05-14T19:11:26.076Z,17.33
2023-05-14T19:14:28.800Z,17.29
2023-05-14T19:17:34.550Z,17.20
2023-05-14T19:20:37.721Z,17.01
2023-05-14T19:23:40.707Z,16.68
2023-05-14T19:26:43.575Z,16.46
2023-05-14T19:29:46.258Z,16.26
2023-05-14T19:32:50.690Z,16.08
2023-05-14T19:35:53.584Z,15.99
2023-05-14T19:38:56.712Z,16.00
2023-05-14T19:41:59.403Z,16.00
2023-05-14T19:45:02.183Z,16.01
2023-05-14T19:48:07.305Z,16.06
2023-05-14T19:51:11.761Z,16.11
2023-05-14T19:54:14.832Z,16.26
2023-05-14T19:57:17.691Z,16.08
2023-05-14T20:00:20.767Z,16.08
2023-05-14T20:03:26.652Z,16.10
2023-05-14T20:06:29.643Z,16.08
2023-05-14T20:09:32.492Z,16.17
2023-05-14T20:12:35.239Z,16.09
2023-05-14T20:15:38.028Z,16.14
2023-05-14T20:18:42.205Z,16.03
2023-05-14T20:21:44.936Z,15.98
2023-05-14T20:24:47.651Z,15.95
2023-05-14T20:27:50.474Z,15.92
2023-05-14T20:30:54.830Z,15.96
2023-05-14T20:33:58.937Z,15.96
2023-05-14T20:37:02.075Z,15.97
2023-05-14T20:40:06.187Z,15.98
2023-05-14T20:43:09.015Z,15.98
2023-05-14T20:46:11.778Z,15.95
2023-05-14T20:49:15.928Z,15.92
2023-05-14T20:52:19.523Z,15.88
2023-05-14T20:55:23.219Z,15.83
2023-05-14T20:58:26.533Z,15.84
2023-05-14T21:01:29.234Z,15.87
2023-05-14T21:04:34.403Z,15.73
2023-05-14T21:07:37.725Z,15.77
2023-05-14T21:10:40.440Z,15.74
2023-05-14T21:13:44.454Z,15.68
2023-05-14T21:16:47.306Z,15.78
2023-05-14T21:19:51.407Z,15.65
2023-05-14T21:22:54.644Z,15.28
2023-05-14T21:25:57.984Z,14.96
2023-05-14T21:29:02.119Z,14.86
2023-05-14T21:32:05.366Z,14.86
2023-05-14T21:35:10.447Z,14.87
2023-05-14T21:38:13.191Z,14.93
2023-05-14T21:41:16.413Z,14.88
2023-05-14T21:44:19.108Z,14.85
2023-05-14T21:47:22.051Z,14.89
2023-05-14T21:50:29.224Z,14.91
2023-05-14T21:53:31.934Z,14.89
2023-05-14T21:56:36.434Z,14.92
2023-05-14T21:59:39.199Z,14.91
2023-05-14T22:02:41.937Z,14.91
2023-05-14T22:05:45.964Z,14.92
2023-05-14T22:08:48.676Z,14.91
2023-05-14T22:11:51.837Z,14.92
2023-05-14T22:14:54.629Z,14.89
2023-05-14T22:17:57.843Z,14.87
2023-05-14T22:21:02.222Z,14.85
2023-05-14T22:24:05.585Z,14.81
2023-05-14T22:27:08.301Z,14.85
2023-05-14T22:30:11.863Z,14.87
2023-05-14T22:33:14.594Z,14.80
2023-05-14T22:36:18.647Z,14.82
2023-05-14T22:39:21.504Z,14.67
2023-05-14T22:42:24.252Z,14.45
2023-05-14T22:45:27.225Z,14.37
2023-05-14T22:48:29.984Z,14.36
2023-05-14T22:51:34.338Z,14.32
2023-05-14T22:54:37.389Z,14.35
2023-05-14T22:57:40.392Z,14.38
2023-05-14T23:00:43.101Z,14.39
2023-05-14T23:18:57.011Z,14.25
2023-05-14T23:22:01.147Z,14.22
2023-05-14T23:25:03.879Z,14.22
2023-05-14T23:28:06.543Z,14.20
2023-05-14T23:31:09.240Z,14.14
2023-05-14T23:34:11.868Z,14.16
2023-05-14T23:37:15.920Z,14.03
2023-05-14T23:40:18.783Z,13.98
2023-05-14T23:43:23.689Z,13.94
2023-05-14T23:46:26.585Z,13.87
2023-05-14T23:49:29.306Z,13.80
2023-05-14T23:52:34.711Z,13.74
2023-05-14T23:55:37.401Z,13.69
2023-05-14T23:58:40.201Z,13.67
